sensor_id;sensor_type;location;lat;lon;timestamp;pressure;altitude;pressure_sealevel;temperature;humidity
29941;BME280;16801;53.562;10.038;2022-12-29T00:00:30;100079.31;;;8.32;100.00
29941;BME280;16801;53.562;10.038;2022-12-29T00:03:51;100077.31;;;8.34;100.00
29941;BME280;16801;53.562;10.038;2022-12-29T00:07:13;100067.56;;;8.42;100.00
29941;BME280;16801;53.562;10.038;2022-12-29T00:10:33;100063.88;;;8.43;100.00
29941;BME280;16801;53.562;10.038;2022-12-29T00:13:54;100062.91;;;8.44;100.00
29941;BME280;16801;53.562;10.038;2022-12-29T00:17:33;100054.69;;;8.46;100.00
29941;BME280;16801;53.562;10.038;2022-12-29T00:20:55;100046.22;;;8.50;100.00
29941;BME280;16801;53.562;10.038;2022-12-29T00:24:34;100037.03;;;8.53;100.00
29941;BME280;16801;53.562;10.038;2022-12-29T00:28:13;100044.09;;;8.63;100.00
29941;BME280;16801;53.562;10.038;2022-12-29T00:31:52;100055.06;;;8.70;99.59
29941;BME280;16801;53.562;10.038;2022-12-29T00:35:33;100034.59;;;8.69;100.00
29941;BME280;16801;53.562;10.038;2022-12-29T00:39:01;100035.72;;;8.66;100.00
29941;BME280;16801;53.562;10.038;2022-12-29T00:42:41;100021.41;;;8.66;100.00
29941;BME280;16801;53.562;10.038;2022-12-29T00:46:19;100026.53;;;8.69;99.67
29941;BME280;16801;53.562;10.038;2022-12-29T00:49:40;100023.41;;;8.73;99.94
29941;BME280;16801;53.562;10.038;2022-12-29T00:53:01;100018.88;;;8.74;99.60
29941;BME280;16801;53.562;10.038;2022-12-29T00:56:22;100018.03;;;8.73;100.00
29941;BME280;16801;53.562;10.038;2022-12-29T00:59:44;100024.97;;;8.76;99.86
29941;BME280;16801;53.562;10.038;2022-12-29T01:03:05;100026.63;;;8.77;99.82
29941;BME280;16801;53.562;10.038;2022-12-29T01:06:26;100014.06;;;8.77;100.00
29941;BME280;16801;53.562;10.038;2022-12-29T01:09:47;100015.72;;;8.88;99.76
29941;BME280;16801;53.562;10.038;2022-12-29T01:13:26;100009.50;;;8.88;99.18
29941;BME280;16801;53.562;10.038;2022-12-29T01:16:48;100001.97;;;8.91;99.21
29941;BME280;16801;53.562;10.038;2022-12-29T01:20:10;100012.88;;;8.90;99.38
29941;BME280;16801;53.562;10.038;2022-12-29T01:23:32;100007.34;;;8.91;99.33
29941;BME280;16801;53.562;10.038;2022-12-29T01:26:52;99998.16;;;8.94;99.80
29941;BME280;16801;53.562;10.038;2022-12-29T01:30:14;99981.88;;;8.95;99.35
29941;BME280;16801;53.562;10.038;2022-12-29T01:33:36;99979.06;;;8.97;99.29
29941;BME280;16801;53.562;10.038;2022-12-29T01:36:57;99973.53;;;8.98;98.71
29941;BME280;16801;53.562;10.038;2022-12-29T01:40:18;99963.47;;;9.00;99.57
29941;BME280;16801;53.562;10.038;2022-12-29T01:43:41;99957.41;;;8.98;100.00
29941;BME280;16801;53.562;10.038;2022-12-29T01:47:03;99963.91;;;8.96;100.00
29941;BME280;16801;53.562;10.038;2022-12-29T01:50:28;99968.44;;;8.95;100.00
29941;BME280;16801;53.562;10.038;2022-12-29T01:53:50;99965.34;;;8.90;100.00
29941;BME280;16801;53.562;10.038;2022-12-29T01:57:15;99957.88;;;8.84;100.00
29941;BME280;16801;53.562;10.038;2022-12-29T02:00:38;99963.69;;;8.79;100.00
29941;BME280;16801;53.562;10.038;2022-12-29T02:03:59;99953.09;;;8.78;100.00
29941;BME280;16801;53.562;10.038;2022-12-29T02:07:24;99957.47;;;8.79;100.00
29941;BME280;16801;53.562;10.038;2022-12-29T02:10:46;99960.47;;;8.76;100.00
29941;BME280;16801;53.562;10.038;2022-12-29T02:14:10;99949.84;;;8.74;100.00
29941;BME280;16801;53.562;10.038;2022-12-29T02:17:45;99940.97;;;8.74;100.00
29941;BME280;16801;53.562;10.038;2022-12-29T02:21:41;99935.44;;;8.75;100.00
29941;BME280;16801;53.562;10.038;2022-12-29T02:25:28;99926.78;;;8.72;100.00
29941;BME280;16801;53.562;10.038;2022-12-29T02:29:04;99935.59;;;8.74;100.00
29941;BME280;16801;53.562;10.038;2022-12-29T02:32:46;99928.34;;;8.74;100.00
29941;BME280;16801;53.562;10.038;2022-12-29T02:36:14;99913.94;;;8.75;100.00
29941;BME280;16801;53.562;10.038;2022-12-29T02:39:47;99909.25;;;8.77;100.00
29941;BME280;16801;53.562;10.038;2022-12-29T02:43:21;99901.91;;;8.79;100.00
29941;BME280;16801;53.562;10.038;2022-12-29T02:46:49;99902.44;;;8.83;100.00
29941;BME280;16801;53.562;10.038;2022-12-29T02:50:19;99900.28;;;8.86;100.00
29941;BME280;16801;53.562;10.038;2022-12-29T02:53:41;99894.91;;;8.86;100.00
29941;BME280;16801;53.562;10.038;2022-12-29T02:57:30;99898.44;;;8.87;100.00
29941;BME280;16801;53.562;10.038;2022-12-29T03:01:03;99898.31;;;8.89;100.00
29941;BME280;16801;53.562;10.038;2022-12-29T03:04:33;99890.81;;;8.92;100.00
29941;BME280;16801;53.562;10.038;2022-12-29T03:08:06;99900.41;;;8.95;100.00
29941;BME280;16801;53.562;10.038;2022-12-29T03:11:41;99894.19;;;8.94;100.00
29941;BME280;16801;53.562;10.038;2022-12-29T03:15:29;99885.97;;;8.96;100.00
29941;BME280;16801;53.562;10.038;2022-12-29T03:19:15;99876.75;;;8.98;100.00
29941;BME280;16801;53.562;10.038;2022-12-29T03:22:41;99864.69;;;9.02;100.00
29941;BME280;16801;53.562;10.038;2022-12-29T03:26:10;99870.25;;;9.01;100.00
29941;BME280;16801;53.562;10.038;2022-12-29T03:29:35;99862.72;;;9.04;100.00
29941;BME280;16801;53.562;10.038;2022-12-29T03:33:01;99852.66;;;9.06;100.00
29941;BME280;16801;53.562;10.038;2022-12-29T03:36:29;99847.44;;;9.05;100.00
29941;BME280;16801;53.562;10.038;2022-12-29T03:39:51;99847.81;;;9.10;100.00
29941;BME280;16801;53.562;10.038;2022-12-29T03:43:15;99852.34;;;9.09;100.00
29941;BME280;16801;53.562;10.038;2022-12-29T03:46:38;99854.13;;;9.18;100.00
29941;BME280;16801;53.562;10.038;2022-12-29T03:49:58;99849.59;;;9.19;100.00
29941;BME280;16801;53.562;10.038;2022-12-29T03:53:19;99851.28;;;9.20;100.00
29941;BME280;16801;53.562;10.038;2022-12-29T03:56:40;99847.59;;;9.21;100.00
29941;BME280;16801;53.562;10.038;2022-12-29T04:00:05;99848.97;;;9.25;100.00
29941;BME280;16801;53.562;10.038;2022-12-29T04:03:35;99851.66;;;9.25;100.00
29941;BME280;16801;53.562;10.038;2022-12-29T04:06:56;99828.16;;;9.27;100.00
29941;BME280;16801;53.562;10.038;2022-12-29T04:10:17;99813.56;;;9.29;100.00
29941;BME280;16801;53.562;10.038;2022-12-29T04:13:39;99833.38;;;9.28;100.00
29941;BME280;16801;53.562;10.038;2022-12-29T04:17:03;99816.25;;;9.29;99.63
29941;BME280;16801;53.562;10.038;2022-12-29T04:20:24;99829.69;;;9.29;100.00
29941;BME280;16801;53.562;10.038;2022-12-29T04:24:03;99813.03;;;9.26;100.00
29941;BME280;16801;53.562;10.038;2022-12-29T04:27:26;99816.19;;;9.21;100.00
29941;BME280;16801;53.562;10.038;2022-12-29T04:31:07;99822.88;;;9.17;100.00
29941;BME280;16801;53.562;10.038;2022-12-29T04:34:33;99814.63;;;9.19;100.00
29941;BME280;16801;53.562;10.038;2022-12-29T04:37:54;99793.56;;;9.14;100.00
29941;BME280;16801;53.562;10.038;2022-12-29T04:41:15;99792.13;;;9.02;100.00
29941;BME280;16801;53.562;10.038;2022-12-29T04:44:35;99790.41;;;9.01;100.00
29941;BME280;16801;53.562;10.038;2022-12-29T04:48:05;99798.19;;;9.04;100.00
29941;BME280;16801;53.562;10.038;2022-12-29T04:51:44;99788.91;;;8.99;100.00
29941;BME280;16801;53.562;10.038;2022-12-29T04:55:07;99784.75;;;9.04;100.00
29941;BME280;16801;53.562;10.038;2022-12-29T04:58:29;99785.16;;;9.09;100.00
29941;BME280;16801;53.562;10.038;2022-12-29T05:01:52;99772.41;;;9.11;100.00
29941;BME280;16801;53.562;10.038;2022-12-29T05:05:12;99770.06;;;9.16;100.00
29941;BME280;16801;53.562;10.038;2022-12-29T05:08:37;99774.47;;;9.17;100.00
29941;BME280;16801;53.562;10.038;2022-12-29T05:11:59;99770.81;;;9.26;100.00
29941;BME280;16801;53.562;10.038;2022-12-29T05:15:19;99783.81;;;9.31;100.00
29941;BME280;16801;53.562;10.038;2022-12-29T05:18:40;99779.13;;;9.33;100.00
29941;BME280;16801;53.562;10.038;2022-12-29T05:22:02;99777.69;;;9.38;100.00
29941;BME280;16801;53.562;10.038;2022-12-29T05:25:25;99780.72;;;9.43;100.00
29941;BME280;16801;53.562;10.038;2022-12-29T05:29:00;99783.88;;;9.56;100.00
29941;BME280;16801;53.562;10.038;2022-12-29T05:32:21;99777.22;;;9.68;100.00
29941;BME280;16801;53.562;10.038;2022-12-29T05:35:42;99762.78;;;9.70;100.00
29941;BME280;16801;53.562;10.038;2022-12-29T05:39:04;99776.13;;;9.79;100.00
29941;BME280;16801;53.562;10.038;2022-12-29T05:42:28;99774.84;;;9.91;100.00
29941;BME280;16801;53.562;10.038;2022-12-29T05:46:08;99771.16;;;9.92;100.00
29941;BME280;16801;53.562;10.038;2022-12-29T05:49:47;99765.78;;;9.92;100.00
29941;BME280;16801;53.562;10.038;2022-12-29T05:53:26;99778.81;;;10.05;100.00
29941;BME280;16801;53.562;10.038;2022-12-29T05:56:47;99786.69;;;10.24;97.51
29941;BME280;16801;53.562;10.038;2022-12-29T06:00:10;99774.63;;;10.36;96.68
29941;BME280;16801;53.562;10.038;2022-12-29T06:03:34;99776.28;;;10.37;96.25
29941;BME280;16801;53.562;10.038;2022-12-29T06:06:55;99769.94;;;10.46;94.20
29941;BME280;16801;53.562;10.038;2022-12-29T06:10:25;99776.03;;;10.56;92.73
29941;BME280;16801;53.562;10.038;2022-12-29T06:13:52;99786.31;;;10.53;93.14
29941;BME280;16801;53.562;10.038;2022-12-29T06:17:14;99795.56;;;10.50;94.08
29941;BME280;16801;53.562;10.038;2022-12-29T06:20:35;99786.13;;;10.54;94.15
29941;BME280;16801;53.562;10.038;2022-12-29T06:23:59;99792.88;;;10.50;94.35
29941;BME280;16801;53.562;10.038;2022-12-29T06:27:20;99796.22;;;10.44;95.03
29941;BME280;16801;53.562;10.038;2022-12-29T06:30:43;99791.91;;;10.25;95.20
29941;BME280;16801;53.562;10.038;2022-12-29T06:34:05;99784.69;;;10.26;95.19
29941;BME280;16801;53.562;10.038;2022-12-29T06:37:26;99788.63;;;10.14;96.13
29941;BME280;16801;53.562;10.038;2022-12-29T06:40:47;99787.47;;;10.16;96.09
29941;BME280;16801;53.562;10.038;2022-12-29T06:44:31;99786.13;;;10.12;96.69
29941;BME280;16801;53.562;10.038;2022-12-29T06:47:59;99780.34;;;10.07;97.49
29941;BME280;16801;53.562;10.038;2022-12-29T06:51:21;99781.50;;;10.05;98.20
29941;BME280;16801;53.562;10.038;2022-12-29T06:54:42;99771.03;;;10.02;97.52
29941;BME280;16801;53.562;10.038;2022-12-29T06:58:02;99770.19;;;10.01;97.19
29941;BME280;16801;53.562;10.038;2022-12-29T07:01:24;99774.59;;;10.02;97.23
29941;BME280;16801;53.562;10.038;2022-12-29T07:04:45;99773.69;;;9.94;97.75
29941;BME280;16801;53.562;10.038;2022-12-29T07:08:07;99773.53;;;9.95;97.28
29941;BME280;16801;53.562;10.038;2022-12-29T07:11:28;99772.19;;;9.99;96.78
29941;BME280;16801;53.562;10.038;2022-12-29T07:14:49;99758.06;;;9.97;96.94
29941;BME280;16801;53.562;10.038;2022-12-29T07:18:09;99780.91;;;9.93;97.09
29941;BME280;16801;53.562;10.038;2022-12-29T07:21:30;99766.69;;;10.01;96.03
29941;BME280;16801;53.562;10.038;2022-12-29T07:24:53;99768.53;;;10.00;96.32
29941;BME280;16801;53.562;10.038;2022-12-29T07:28:13;99785.81;;;9.98;97.03
29941;BME280;16801;53.562;10.038;2022-12-29T07:31:34;99785.16;;;9.96;96.74
29941;BME280;16801;53.562;10.038;2022-12-29T07:34:55;99780.44;;;9.98;96.55
29941;BME280;16801;53.562;10.038;2022-12-29T07:38:16;99789.25;;;10.08;95.70
29941;BME280;16801;53.562;10.038;2022-12-29T07:41:38;99812.88;;;10.14;95.09
29941;BME280;16801;53.562;10.038;2022-12-29T07:45:05;99807.88;;;10.19;94.87
29941;BME280;16801;53.562;10.038;2022-12-29T07:48:42;99781.59;;;9.95;96.69
29941;BME280;16801;53.562;10.038;2022-12-29T07:52:03;99812.31;;;9.85;98.02
29941;BME280;16801;53.562;10.038;2022-12-29T07:55:24;99807.44;;;9.80;98.65
29941;BME280;16801;53.562;10.038;2022-12-29T07:58:46;99797.13;;;9.76;99.37
29941;BME280;16801;53.562;10.038;2022-12-29T08:02:09;99792.22;;;9.71;99.34
29941;BME280;16801;53.562;10.038;2022-12-29T08:05:30;99789.31;;;9.64;100.00
29941;BME280;16801;53.562;10.038;2022-12-29T08:08:51;99815.84;;;9.59;100.00
29941;BME280;16801;53.562;10.038;2022-12-29T08:12:12;99817.81;;;9.57;100.00
29941;BME280;16801;53.562;10.038;2022-12-29T08:15:34;99815.47;;;9.54;100.00
29941;BME280;16801;53.562;10.038;2022-12-29T08:18:56;99819.91;;;9.63;99.72
29941;BME280;16801;53.562;10.038;2022-12-29T08:22:16;99822.03;;;9.78;98.14
29941;BME280;16801;53.562;10.038;2022-12-29T08:25:38;99825.19;;;9.91;97.43
29941;BME280;16801;53.562;10.038;2022-12-29T08:28:58;99830.56;;;9.91;96.70
29941;BME280;16801;53.562;10.038;2022-12-29T08:32:21;99844.03;;;9.91;96.90
29941;BME280;16801;53.562;10.038;2022-12-29T08:35:41;99854.38;;;10.03;96.58
29941;BME280;16801;53.562;10.038;2022-12-29T08:39:03;99848.16;;;11.12;91.96
29941;BME280;16801;53.562;10.038;2022-12-29T08:42:24;99855.19;;;10.21;93.97
29941;BME280;16801;53.562;10.038;2022-12-29T08:45:50;99855.19;;;10.21;95.73
29941;BME280;16801;53.562;10.038;2022-12-29T08:49:13;99850.09;;;10.18;94.70
29941;BME280;16801;53.562;10.038;2022-12-29T08:52:33;99849.97;;;10.20;94.37
29941;BME280;16801;53.562;10.038;2022-12-29T08:55:56;99853.47;;;10.20;94.10
29941;BME280;16801;53.562;10.038;2022-12-29T08:59:17;99862.16;;;10.66;91.01
29941;BME280;16801;53.562;10.038;2022-12-29T09:02:40;99855.41;;;12.56;82.37
29941;BME280;16801;53.562;10.038;2022-12-29T09:06:03;99865.84;;;12.67;79.25
29941;BME280;16801;53.562;10.038;2022-12-29T09:09:24;99859.94;;;13.11;77.76
29941;BME280;16801;53.562;10.038;2022-12-29T09:12:45;99859.50;;;13.52;75.22
29941;BME280;16801;53.562;10.038;2022-12-29T09:16:06;99861.69;;;13.57;74.14
29941;BME280;16801;53.562;10.038;2022-12-29T09:19:27;99883.63;;;13.39;74.00
29941;BME280;16801;53.562;10.038;2022-12-29T09:22:49;99882.81;;;12.45;76.15
29941;BME280;16801;53.562;10.038;2022-12-29T09:26:10;99873.25;;;13.51;75.03
29941;BME280;16801;53.562;10.038;2022-12-29T09:29:31;99887.78;;;13.50;72.86
29941;BME280;16801;53.562;10.038;2022-12-29T09:32:52;99880.88;;;12.70;74.34
29941;BME280;16801;53.562;10.038;2022-12-29T09:36:12;99904.78;;;13.36;72.55
29941;BME280;16801;53.562;10.038;2022-12-29T09:39:35;99899.47;;;13.96;71.02
29941;BME280;16801;53.562;10.038;2022-12-29T09:43:07;99894.66;;;11.64;78.68
29941;BME280;16801;53.562;10.038;2022-12-29T09:46:35;99905.78;;;12.33;78.19
29941;BME280;16801;53.562;10.038;2022-12-29T09:50:02;99904.59;;;12.44;75.35
29941;BME280;16801;53.562;10.038;2022-12-29T09:53:27;99916.91;;;11.00;81.65
29941;BME280;16801;53.562;10.038;2022-12-29T09:56:52;99897.34;;;10.98;80.93
29941;BME280;16801;53.562;10.038;2022-12-29T10:00:14;99915.94;;;11.83;77.22
29941;BME280;16801;53.562;10.038;2022-12-29T10:03:45;99905.75;;;11.37;79.45
29941;BME280;16801;53.562;10.038;2022-12-29T10:07:11;99933.19;;;13.01;72.81
29941;BME280;16801;53.562;10.038;2022-12-29T10:10:41;99911.88;;;14.13;67.41
29941;BME280;16801;53.562;10.038;2022-12-29T10:14:23;99900.63;;;11.17;77.95
29941;BME280;16801;53.562;10.038;2022-12-29T10:17:48;99905.09;;;11.59;77.96
29941;BME280;16801;53.562;10.038;2022-12-29T10:21:22;99916.41;;;11.62;76.49
29941;BME280;16801;53.562;10.038;2022-12-29T10:24:47;99910.19;;;13.05;70.40
29941;BME280;16801;53.562;10.038;2022-12-29T10:28:17;99916.59;;;12.41;73.08
29941;BME280;16801;53.562;10.038;2022-12-29T10:31:43;99922.59;;;11.39;76.66
29941;BME280;16801;53.562;10.038;2022-12-29T10:35:09;99896.59;;;11.21;76.99
29941;BME280;16801;53.562;10.038;2022-12-29T10:38:40;99903.91;;;13.13;70.47
29941;BME280;16801;53.562;10.038;2022-12-29T10:42:09;99886.13;;;12.71;70.55
29941;BME280;16801;53.562;10.038;2022-12-29T10:45:34;99887.00;;;13.03;68.95
29941;BME280;16801;53.562;10.038;2022-12-29T10:48:57;99890.47;;;12.18;70.50
29941;BME280;16801;53.562;10.038;2022-12-29T10:52:19;99901.03;;;11.39;74.56
29941;BME280;16801;53.562;10.038;2022-12-29T10:55:41;99888.25;;;11.81;73.67
29941;BME280;16801;53.562;10.038;2022-12-29T10:59:10;99884.16;;;11.45;74.09
29941;BME280;16801;53.562;10.038;2022-12-29T11:02:46;99887.22;;;13.32;68.66
29941;BME280;16801;53.562;10.038;2022-12-29T11:06:14;99903.94;;;12.34;69.80
29941;BME280;16801;53.562;10.038;2022-12-29T11:09:39;99893.44;;;11.58;74.10
29941;BME280;16801;53.562;10.038;2022-12-29T11:13:03;99898.81;;;11.42;74.61
29941;BME280;16801;53.562;10.038;2022-12-29T11:16:29;99900.28;;;11.20;75.36
29941;BME280;16801;53.562;10.038;2022-12-29T11:19:51;99918.25;;;12.74;70.51
29941;BME280;16801;53.562;10.038;2022-12-29T11:23:27;99896.50;;;12.99;67.94
29941;BME280;16801;53.562;10.038;2022-12-29T11:26:50;99899.69;;;12.39;69.91
29941;BME280;16801;53.562;10.038;2022-12-29T11:30:23;99913.06;;;11.68;71.48
29941;BME280;16801;53.562;10.038;2022-12-29T11:33:44;99896.91;;;11.18;74.20
29941;BME280;16801;53.562;10.038;2022-12-29T11:37:06;99901.31;;;11.19;74.00
29941;BME280;16801;53.562;10.038;2022-12-29T11:40:37;99897.06;;;11.17;73.41
29941;BME280;16801;53.562;10.038;2022-12-29T11:44:01;99897.94;;;11.17;74.06
29941;BME280;16801;53.562;10.038;2022-12-29T11:47:27;99899.84;;;10.91;73.79
29941;BME280;16801;53.562;10.038;2022-12-29T11:50:53;99908.09;;;10.90;74.54
29941;BME280;16801;53.562;10.038;2022-12-29T11:54:18;99899.41;;;10.70;75.92
29941;BME280;16801;53.562;10.038;2022-12-29T11:57:43;99915.56;;;10.70;76.63
29941;BME280;16801;53.562;10.038;2022-12-29T12:01:07;99895.09;;;10.85;75.89
29941;BME280;16801;53.562;10.038;2022-12-29T12:04:34;99907.13;;;10.99;76.28
29941;BME280;16801;53.562;10.038;2022-12-29T12:08:01;99922.13;;;10.60;78.02
29941;BME280;16801;53.562;10.038;2022-12-29T12:11:26;99919.56;;;10.58;78.01
29941;BME280;16801;53.562;10.038;2022-12-29T12:14:58;99931.44;;;10.48;78.61
29941;BME280;16801;53.562;10.038;2022-12-29T12:18:39;99936.63;;;10.41;79.31
29941;BME280;16801;53.562;10.038;2022-12-29T12:22:03;99930.47;;;10.49;79.94
29941;BME280;16801;53.562;10.038;2022-12-29T12:25:31;99936.53;;;10.51;79.80
29941;BME280;16801;53.562;10.038;2022-12-29T12:28:58;99908.44;;;10.53;80.13
29941;BME280;16801;53.562;10.038;2022-12-29T12:32:24;99916.81;;;10.50;81.32
29941;BME280;16801;53.562;10.038;2022-12-29T12:36:18;99922.38;;;10.49;79.83
29941;BME280;16801;53.562;10.038;2022-12-29T12:39:49;99909.31;;;10.36;81.28
29941;BME280;16801;53.562;10.038;2022-12-29T12:43:28;99923.56;;;10.28;81.63
29941;BME280;16801;53.562;10.038;2022-12-29T12:47:18;99911.50;;;10.32;81.63
29941;BME280;16801;53.562;10.038;2022-12-29T12:50:49;99923.53;;;10.46;79.32
29941;BME280;16801;53.562;10.038;2022-12-29T12:54:26;99919.28;;;10.43;79.80
29941;BME280;16801;53.562;10.038;2022-12-29T12:57:59;99915.06;;;10.41;80.78
29941;BME280;16801;53.562;10.038;2022-12-29T13:01:35;99918.81;;;10.48;79.74
29941;BME280;16801;53.562;10.038;2022-12-29T13:05:12;99915.41;;;10.38;80.89
29941;BME280;16801;53.562;10.038;2022-12-29T13:08:49;99923.31;;;10.39;79.53
29941;BME280;16801;53.562;10.038;2022-12-29T13:12:18;99926.59;;;10.51;78.66
29941;BME280;16801;53.562;10.038;2022-12-29T13:15:49;99921.25;;;10.59;77.50
29941;BME280;16801;53.562;10.038;2022-12-29T13:19:19;99937.94;;;10.63;76.77
29941;BME280;16801;53.562;10.038;2022-12-29T13:22:50;99933.41;;;10.63;76.88
29941;BME280;16801;53.562;10.038;2022-12-29T13:26:19;99946.09;;;10.45;79.30
29941;BME280;16801;53.562;10.038;2022-12-29T13:29:47;99950.19;;;10.31;79.97
29941;BME280;16801;53.562;10.038;2022-12-29T13:33:19;99953.97;;;10.38;79.89
29941;BME280;16801;53.562;10.038;2022-12-29T13:36:44;99960.41;;;10.20;81.88
29941;BME280;16801;53.562;10.038;2022-12-29T13:40:12;99983.38;;;10.14;82.73
29941;BME280;16801;53.562;10.038;2022-12-29T13:43:39;99979.63;;;10.07;83.39
29941;BME280;16801;53.562;10.038;2022-12-29T13:47:05;99990.22;;;10.09;83.61
29941;BME280;16801;53.562;10.038;2022-12-29T13:50:35;99993.91;;;10.08;83.14
29941;BME280;16801;53.562;10.038;2022-12-29T13:54:11;100010.56;;;10.21;81.50
29941;BME280;16801;53.562;10.038;2022-12-29T13:57:39;100009.94;;;10.27;81.42
29941;BME280;16801;53.562;10.038;2022-12-29T14:01:09;100014.47;;;10.26;80.93
29941;BME280;16801;53.562;10.038;2022-12-29T14:04:33;100017.03;;;10.28;81.00
29941;BME280;16801;53.562;10.038;2022-12-29T14:07:58;100017.03;;;10.28;81.42
29941;BME280;16801;53.562;10.038;2022-12-29T14:11:22;100046.88;;;10.17;82.50
29941;BME280;16801;53.562;10.038;2022-12-29T14:14:45;100075.38;;;10.10;85.05
29941;BME280;16801;53.562;10.038;2022-12-29T14:18:14;100097.09;;;9.54;83.76
29941;BME280;16801;53.562;10.038;2022-12-29T14:21:36;100103.88;;;8.65;86.60
29941;BME280;16801;53.562;10.038;2022-12-29T14:24:57;100099.94;;;8.31;87.77
29941;BME280;16801;53.562;10.038;2022-12-29T14:28:22;100110.75;;;8.20;90.07
29941;BME280;16801;53.562;10.038;2022-12-29T14:31:44;100099.03;;;8.21;90.05
29941;BME280;16801;53.562;10.038;2022-12-29T14:35:38;100088.56;;;8.18;90.37
29941;BME280;16801;53.562;10.038;2022-12-29T14:39:00;100107.13;;;8.31;90.13
29941;BME280;16801;53.562;10.038;2022-12-29T14:42:21;100114.47;;;8.48;88.55
29941;BME280;16801;53.562;10.038;2022-12-29T14:45:42;100124.53;;;8.46;88.98
29941;BME280;16801;53.562;10.038;2022-12-29T14:49:16;100132.13;;;8.41;89.70
29941;BME280;16801;53.562;10.038;2022-12-29T14:52:45;100131.16;;;8.42;91.10
29941;BME280;16801;53.562;10.038;2022-12-29T14:56:09;100132.16;;;8.50;90.83
29941;BME280;16801;53.562;10.038;2022-12-29T14:59:32;100132.59;;;8.46;90.96
29941;BME280;16801;53.562;10.038;2022-12-29T15:03:05;100121.41;;;8.50;92.04
29941;BME280;16801;53.562;10.038;2022-12-29T15:06:29;100145.16;;;8.45;91.79
29941;BME280;16801;53.562;10.038;2022-12-29T15:09:56;100128.34;;;8.53;90.72
29941;BME280;16801;53.562;10.038;2022-12-29T15:13:22;100148.56;;;8.57;90.83
29941;BME280;16801;53.562;10.038;2022-12-29T15:16:44;100148.69;;;8.55;91.69
29941;BME280;16801;53.562;10.038;2022-12-29T15:20:16;100154.50;;;8.51;91.92
29941;BME280;16801;53.562;10.038;2022-12-29T15:23:38;100157.19;;;8.51;91.77
29941;BME280;16801;53.562;10.038;2022-12-29T15:27:03;100158.88;;;8.52;91.62
29941;BME280;16801;53.562;10.038;2022-12-29T15:30:24;100173.00;;;8.54;91.12
29941;BME280;16801;53.562;10.038;2022-12-29T15:33:46;100176.97;;;8.50;91.58
29941;BME280;16801;53.562;10.038;2022-12-29T15:37:08;100194.50;;;8.54;91.18
29941;BME280;16801;53.562;10.038;2022-12-29T15:40:31;100190.13;;;8.53;92.26
29941;BME280;16801;53.562;10.038;2022-12-29T15:44:01;100196.91;;;8.57;92.13
29941;BME280;16801;53.562;10.038;2022-12-29T15:47:28;100202.69;;;8.62;90.74
29941;BME280;16801;53.562;10.038;2022-12-29T15:50:50;100213.59;;;8.70;90.09
29941;BME280;16801;53.562;10.038;2022-12-29T15:54:15;100212.88;;;8.68;90.97
29941;BME280;16801;53.562;10.038;2022-12-29T15:57:42;100206.25;;;8.72;89.43
29941;BME280;16801;53.562;10.038;2022-12-29T16:01:05;100208.53;;;8.67;89.15
29941;BME280;16801;53.562;10.038;2022-12-29T16:04:34;100214.31;;;8.72;88.51
29941;BME280;16801;53.562;10.038;2022-12-29T16:07:56;100220.81;;;8.69;88.09
29941;BME280;16801;53.562;10.038;2022-12-29T16:11:23;100225.03;;;8.72;87.72
29941;BME280;16801;53.562;10.038;2022-12-29T16:14:47;100238.47;;;8.72;88.07
29941;BME280;16801;53.562;10.038;2022-12-29T16:18:21;100241.06;;;8.73;87.12
29941;BME280;16801;53.562;10.038;2022-12-29T16:21:44;100251.66;;;8.75;87.62
29941;BME280;16801;53.562;10.038;2022-12-29T16:25:12;100247.28;;;8.74;86.73
29941;BME280;16801;53.562;10.038;2022-12-29T16:28:39;100245.31;;;8.76;87.35
29941;BME280;16801;53.562;10.038;2022-12-29T16:32:02;100243.59;;;8.75;87.38
29941;BME280;16801;53.562;10.038;2022-12-29T16:35:26;100252.91;;;8.80;86.86
29941;BME280;16801;53.562;10.038;2022-12-29T16:39:21;100254.47;;;8.83;86.96
29941;BME280;16801;53.562;10.038;2022-12-29T16:42:46;100241.34;;;8.80;87.91
29941;BME280;16801;53.562;10.038;2022-12-29T16:46:25;100244.59;;;8.74;88.15
29941;BME280;16801;53.562;10.038;2022-12-29T16:49:50;100250.25;;;8.71;88.08
29941;BME280;16801;53.562;10.038;2022-12-29T16:53:19;100268.59;;;8.66;88.68
29941;BME280;16801;53.562;10.038;2022-12-29T16:56:43;100270.00;;;8.60;88.92
29941;BME280;16801;53.562;10.038;2022-12-29T17:00:06;100276.25;;;8.61;89.35
29941;BME280;16801;53.562;10.038;2022-12-29T17:03:33;100268.03;;;8.62;88.69
29941;BME280;16801;53.562;10.038;2022-12-29T17:06:54;100268.59;;;8.66;87.64
29941;BME280;16801;53.562;10.038;2022-12-29T17:10:17;100277.38;;;8.68;88.33
29941;BME280;16801;53.562;10.038;2022-12-29T17:13:38;100285.16;;;8.71;87.93
29941;BME280;16801;53.562;10.038;2022-12-29T17:17:00;100285.16;;;8.71;87.38
29941;BME280;16801;53.562;10.038;2022-12-29T17:20:23;100280.66;;;8.71;87.31
29941;BME280;16801;53.562;10.038;2022-12-29T17:23:44;100281.47;;;8.62;87.40
29941;BME280;16801;53.562;10.038;2022-12-29T17:27:06;100280.06;;;8.58;87.79
29941;BME280;16801;53.562;10.038;2022-12-29T17:30:28;100281.75;;;8.59;87.69
29941;BME280;16801;53.562;10.038;2022-12-29T17:33:49;100289.09;;;8.57;87.90
29941;BME280;16801;53.562;10.038;2022-12-29T17:37:34;100297.59;;;8.62;87.15
29941;BME280;16801;53.562;10.038;2022-12-29T17:40:55;100296.19;;;8.68;87.23
29941;BME280;16801;53.562;10.038;2022-12-29T17:44:19;100289.69;;;8.70;87.94
29941;BME280;16801;53.562;10.038;2022-12-29T17:47:40;100291.41;;;8.71;87.53
29941;BME280;16801;53.562;10.038;2022-12-29T17:51:01;100293.69;;;8.76;87.59
29941;BME280;16801;53.562;10.038;2022-12-29T17:54:24;100298.03;;;8.77;87.75
29941;BME280;16801;53.562;10.038;2022-12-29T17:57:45;100299.88;;;8.76;87.69